createdAt,value
2023-01-28T00:00:29.717Z,100.00
2023-01-28T00:01:31.216Z,100.00
2023-01-28T00:02:35.915Z,100.00
2023-01-28T00:03:37.608Z,100.00
2023-01-28T00:04:40.155Z,100.00
2023-01-28T00:05:41.768Z,100.00
2023-01-28T00:06:44.547Z,100.00
2023-01-28T00:07:49.070Z,100.00
2023-01-28T00:08:51.579Z,100.00
2023-01-28T00:09:53.224Z,100.00
2023-01-28T00:10:56.000Z,100.00
2023-01-28T00:11:57.702Z,100.00
2023-01-28T00:13:00.868Z,100.00
2023-01-28T00:14:04.619Z,100.00
2023-01-28T00:15:08.248Z,100.00
2023-01-28T00:16:10.120Z,100.00
2023-01-28T00:17:13.293Z,100.00
2023-01-28T00:18:16.590Z,100.00
2023-01-28T00:19:19.147Z,100.00
2023-01-28T00:20:20.859Z,100.00
2023-01-28T00:21:23.530Z,100.00
2023-01-28T00:22:25.264Z,100.00
2023-01-28T00:23:28.619Z,100.00
2023-01-28T00:24:30.562Z,100.00
2023-01-28T00:25:32.996Z,100.00
2023-01-28T00:26:34.539Z,100.00
2023-01-28T00:27:37.221Z,100.00
2023-01-28T00:28:38.874Z,100.00
2023-01-28T00:29:41.365Z,99.64
2023-01-28T00:30:42.837Z,99.24
2023-01-28T00:31:45.539Z,99.33
2023-01-28T00:32:47.079Z,99.93
2023-01-28T00:33:51.983Z,100.00
2023-01-28T00:34:53.498Z,100.00
2023-01-28T00:36:00.627Z,100.00
2023-01-28T00:37:02.180Z,100.00
2023-01-28T00:38:04.645Z,100.00
2023-01-28T00:39:06.779Z,100.00
2023-01-28T00:40:10.813Z,100.00
2023-01-28T00:41:14.012Z,100.00
2023-01-28T00:42:17.002Z,100.00
2023-01-28T00:43:18.775Z,100.00
2023-01-28T00:44:22.362Z,100.00
2023-01-28T00:45:23.822Z,100.00
2023-01-28T00:46:27.812Z,100.00
2023-01-28T00:47:29.472Z,100.00
2023-01-28T00:48:32.045Z,100.00
2023-01-28T00:49:34.866Z,100.00
2023-01-28T00:50:37.293Z,100.00
2023-01-28T00:51:38.795Z,100.00
2023-01-28T00:52:41.507Z,99.96
2023-01-28T00:53:43.391Z,99.28
2023-01-28T00:54:45.781Z,98.58
2023-01-28T00:55:47.475Z,98.17
2023-01-28T00:56:49.948Z,97.39
2023-01-28T00:57:51.663Z,96.67
2023-01-28T00:58:54.145Z,95.61
2023-01-28T00:59:55.618Z,96.82
2023-01-28T01:00:58.133Z,97.55
2023-01-28T01:02:12.439Z,96.99
2023-01-28T01:03:15.096Z,98.63
2023-01-28T01:04:26.963Z,99.55
2023-01-28T01:05:29.933Z,100.00
2023-01-28T01:06:35.393Z,100.00
2023-01-28T01:07:41.876Z,100.00
2023-01-28T01:08:50.029Z,100.00
2023-01-28T01:09:51.529Z,100.00
2023-01-28T01:10:53.971Z,100.00
2023-01-28T01:11:55.426Z,100.00
2023-01-28T01:12:59.091Z,100.00
2023-01-28T01:14:01.019Z,100.00
2023-01-28T01:15:03.855Z,100.00
2023-01-28T01:16:07.875Z,99.12
2023-01-28T01:17:10.636Z,98.37
2023-01-28T01:18:12.161Z,99.13
2023-01-28T01:19:14.656Z,97.90
2023-01-28T01:20:18.973Z,97.11
2023-01-28T01:21:24.950Z,98.08
2023-01-28T01:22:26.477Z,97.61
2023-01-28T01:23:29.999Z,97.24
2023-01-28T01:24:33.924Z,98.37
2023-01-28T01:25:36.488Z,98.59
2023-01-28T01:26:37.982Z,98.28
2023-01-28T01:27:40.787Z,97.29
2023-01-28T01:28:42.812Z,96.84
2023-01-28T01:29:45.285Z,98.20
2023-01-28T01:30:47.258Z,98.74
2023-01-28T01:31:49.762Z,98.91
2023-01-28T01:32:51.296Z,98.86
2023-01-28T01:33:53.988Z,98.17
2023-01-28T01:34:55.498Z,97.86
2023-01-28T01:35:58.535Z,97.46
2023-01-28T01:37:01.370Z,96.31
2023-01-28T01:38:04.144Z,97.07
2023-01-28T01:39:05.660Z,97.81
2023-01-28T01:40:10.341Z,97.92
2023-01-28T01:41:23.288Z,98.07
2023-01-28T01:42:26.501Z,99.29
2023-01-28T01:43:50.130Z,98.68
2023-01-28T01:44:58.866Z,98.95
2023-01-28T01:46:01.568Z,99.63
2023-01-28T01:47:04.307Z,100.00
2023-01-28T01:48:13.988Z,100.00
2023-01-28T01:49:20.951Z,99.60
2023-01-28T01:50:31.245Z,98.80
2023-01-28T01:51:37.179Z,99.62
2023-01-28T01:52:42.266Z,100.00
2023-01-28T01:53:47.600Z,100.00
2023-01-28T01:54:53.916Z,100.00
2023-01-28T01:56:01.334Z,100.00
2023-01-28T01:57:04.025Z,100.00
2023-01-28T01:58:11.981Z,100.00
2023-01-28T01:59:18.931Z,100.00
2023-01-28T02:00:22.930Z,100.00
2023-01-28T02:01:27.793Z,100.00
2023-01-28T02:02:30.262Z,99.76
2023-01-28T02:03:49.147Z,97.85
2023-01-28T02:04:50.896Z,97.93
2023-01-28T02:05:53.562Z,97.36
2023-01-28T02:06:55.593Z,96.41
2023-01-28T02:08:20.949Z,95.76
2023-01-28T02:09:27.235Z,96.01
2023-01-28T02:10:29.960Z,95.89
2023-01-28T02:11:33.814Z,94.99
2023-01-28T02:12:38.358Z,95.79
2023-01-28T02:13:44.646Z,95.23
2023-01-28T02:14:50.938Z,96.00
2023-01-28T02:15:53.292Z,96.17
2023-01-28T02:16:56.395Z,96.48
2023-01-28T02:17:58.018Z,97.01
2023-01-28T02:19:00.698Z,99.03
2023-01-28T02:20:04.567Z,99.17
2023-01-28T02:21:48.983Z,99.98
2023-01-28T02:23:20.620Z,98.96
2023-01-28T02:24:44.778Z,99.37
2023-01-28T02:26:15.416Z,100.00
2023-01-28T02:27:27.345Z,100.00
2023-01-28T02:28:38.559Z,100.00
2023-01-28T02:29:48.761Z,100.00
2023-01-28T02:30:56.425Z,100.00
2023-01-28T02:32:04.198Z,100.00
2023-01-28T02:33:12.577Z,100.00
2023-01-28T02:34:19.786Z,100.00
2023-01-28T02:35:30.038Z,100.00
2023-01-28T02:36:40.589Z,100.00
2023-01-28T02:37:48.782Z,100.00
2023-01-28T02:38:53.683Z,99.80
2023-01-28T02:40:01.439Z,99.89
2023-01-28T02:41:08.864Z,100.00
2023-01-28T02:42:16.346Z,100.00
2023-01-28T02:43:17.849Z,99.22
2023-01-28T02:44:21.632Z,99.28
2023-01-28T02:45:46.051Z,98.60
2023-01-28T02:47:05.963Z,98.35
2023-01-28T02:48:07.489Z,99.65
2023-01-28T02:49:12.943Z,100.00
2023-01-28T02:50:17.463Z,99.91
2023-01-28T02:51:29.333Z,100.00
2023-01-28T02:52:58.769Z,100.00
2023-01-28T02:54:06.705Z,100.00
2023-01-28T02:55:14.769Z,99.30
2023-01-28T02:56:29.336Z,99.99
2023-01-28T02:57:39.098Z,99.77
2023-01-28T02:58:47.541Z,99.31
2023-01-28T03:00:01.671Z,100.00
2023-01-28T03:01:14.561Z,99.89
2023-01-28T03:02:23.385Z,100.00
2023-01-28T03:03:30.713Z,100.00
2023-01-28T03:04:36.842Z,100.00
2023-01-28T03:05:58.295Z,100.00
2023-01-28T03:07:05.638Z,100.00
2023-01-28T03:08:24.306Z,100.00
2023-01-28T03:09:27.844Z,99.94
2023-01-28T03:10:33.259Z,100.00
2023-01-28T03:11:59.062Z,100.00
2023-01-28T03:13:19.483Z,100.00
2023-01-28T03:14:42.256Z,99.09
2023-01-28T03:16:06.427Z,99.50
2023-01-28T03:17:33.485Z,100.00
2023-01-28T03:19:00.221Z,100.00
2023-01-28T03:20:20.810Z,100.00
2023-01-28T03:21:45.564Z,98.36
2023-01-28T03:23:10.616Z,96.93
2023-01-28T03:24:35.741Z,97.03
2023-01-28T03:25:59.225Z,96.94
2023-01-28T03:27:24.898Z,96.74
2023-01-28T03:28:48.270Z,96.23
2023-01-28T03:30:11.616Z,96.00
2023-01-28T03:31:35.042Z,95.09
2023-01-28T03:32:56.907Z,94.32
2023-01-28T03:34:19.060Z,93.33
2023-01-28T03:35:41.801Z,92.29
2023-01-28T03:36:50.327Z,92.42
2023-01-28T03:37:53.115Z,92.11
2023-01-28T03:38:54.790Z,92.01
2023-01-28T03:39:58.081Z,91.50
2023-01-28T03:41:01.810Z,91.63
2023-01-28T03:42:07.000Z,91.95
2023-01-28T03:43:08.594Z,91.97
2023-01-28T03:44:28.711Z,91.93
2023-01-28T03:45:31.268Z,91.21
2023-01-28T03:46:35.859Z,89.67
2023-01-28T03:47:40.558Z,90.19
2023-01-28T03:48:42.532Z,91.62
2023-01-28T03:49:49.028Z,91.92
2023-01-28T03:50:51.036Z,93.23
2023-01-28T03:51:53.562Z,93.73
2023-01-28T03:52:55.085Z,93.88
2023-01-28T03:54:04.877Z,94.84
2023-01-28T03:55:14.137Z,94.65
2023-01-28T03:56:18.588Z,94.68
2023-01-28T03:57:23.715Z,94.28
2023-01-28T03:58:27.277Z,93.51
2023-01-28T03:59:29.811Z,94.22
2023-01-28T04:00:32.738Z,93.97
2023-01-28T04:01:36.557Z,93.33
2023-01-28T04:02:40.224Z,92.96
2023-01-28T04:03:43.003Z,92.99
2023-01-28T04:04:44.765Z,93.26
2023-01-28T04:05:58.527Z,92.70
2023-01-28T04:07:00.235Z,92.19
2023-01-28T04:08:02.738Z,91.29
2023-01-28T04:09:06.010Z,91.20
2023-01-28T04:10:10.008Z,90.44
2023-01-28T04:11:15.748Z,91.48
2023-01-28T04:12:18.632Z,92.17
2023-01-28T04:13:23.451Z,91.38
2023-01-28T04:14:25.911Z,90.99
2023-01-28T04:15:27.383Z,91.62
2023-01-28T04:16:29.876Z,91.53
2023-01-28T04:17:32.821Z,91.46
2023-01-28T04:18:35.613Z,91.71
2023-01-28T04:19:38.579Z,93.24
2023-01-28T04:20:40.268Z,93.41
2023-01-28T04:21:42.892Z,93.27
2023-01-28T04:22:44.451Z,93.42
2023-01-28T04:23:46.904Z,93.17
2023-01-28T04:24:48.382Z,92.61
2023-01-28T04:25:51.150Z,92.23
2023-01-28T04:26:54.315Z,91.60
2023-01-28T04:27:58.097Z,91.16
2023-01-28T04:28:59.598Z,91.32
2023-01-28T04:30:02.223Z,91.46
2023-01-28T04:31:03.956Z,90.78
2023-01-28T04:32:06.696Z,92.05
2023-01-28T04:33:09.597Z,93.27
2023-01-28T04:34:11.997Z,94.19
2023-01-28T04:35:13.905Z,93.99
2023-01-28T04:36:16.513Z,95.72
2023-01-28T04:37:18.951Z,96.50
2023-01-28T04:38:20.673Z,95.62
2023-01-28T04:39:23.545Z,96.37
2023-01-28T04:40:25.070Z,96.64
2023-01-28T04:41:27.520Z,97.57
2023-01-28T04:42:29.043Z,97.10
2023-01-28T04:43:31.768Z,96.83
2023-01-28T04:44:34.225Z,96.18
2023-01-28T04:45:35.784Z,95.89
2023-01-28T04:46:38.292Z,95.34
2023-01-28T04:47:39.963Z,95.96
2023-01-28T04:48:43.832Z,96.22
2023-01-28T04:49:45.443Z,95.82
2023-01-28T04:50:47.942Z,94.97
2023-01-28T04:51:49.417Z,95.33
2023-01-28T04:52:51.974Z,95.65
2023-01-28T04:53:53.543Z,95.36
2023-01-28T04:54:56.002Z,95.36
2023-01-28T04:55:58.289Z,95.24
2023-01-28T04:57:00.825Z,94.73
2023-01-28T04:58:02.601Z,95.07
2023-01-28T04:59:05.134Z,94.42
2023-01-28T05:00:08.077Z,94.09
2023-01-28T05:01:11.071Z,95.04
2023-01-28T05:02:12.667Z,95.29
2023-01-28T05:03:15.343Z,95.14
2023-01-28T05:04:18.271Z,94.84
2023-01-28T05:05:20.858Z,94.33
2023-01-28T05:06:22.422Z,92.42
2023-01-28T05:07:25.042Z,91.54
2023-01-28T05:08:26.728Z,91.97
2023-01-28T05:09:29.166Z,93.13
2023-01-28T05:10:30.619Z,93.64
2023-01-28T05:11:33.104Z,93.49
2023-01-28T05:12:34.582Z,92.65
2023-01-28T05:13:37.072Z,92.41
2023-01-28T05:14:38.735Z,91.51
2023-01-28T05:15:41.255Z,92.28
2023-01-28T05:16:42.952Z,92.17
2023-01-28T05:17:46.146Z,91.94
2023-01-28T05:18:48.116Z,93.25
2023-01-28T05:19:51.928Z,93.30
2023-01-28T05:20:53.408Z,93.73
2023-01-28T05:21:55.879Z,93.30
2023-01-28T05:22:57.431Z,93.41
2023-01-28T05:23:59.907Z,92.93
2023-01-28T05:25:04.002Z,92.36
2023-01-28T05:26:06.508Z,92.00
2023-01-28T05:27:08.056Z,91.87
2023-01-28T05:28:10.486Z,92.07
2023-01-28T05:29:12.156Z,92.16
2023-01-28T05:30:15.374Z,92.06
2023-01-28T05:31:18.238Z,91.45
2023-01-28T05:32:20.907Z,91.57
2023-01-28T05:33:22.715Z,92.02
2023-01-28T05:34:26.015Z,92.03
2023-01-28T05:35:30.130Z,92.75
2023-01-28T05:36:31.641Z,92.82
2023-01-28T05:37:34.406Z,92.09
2023-01-28T05:38:36.327Z,92.05
2023-01-28T05:39:40.808Z,91.95
2023-01-28T05:40:42.524Z,92.86
2023-01-28T05:41:45.591Z,93.93
2023-01-28T05:42:47.473Z,94.18
2023-01-28T05:43:50.359Z,94.16
2023-01-28T05:44:52.013Z,93.84
2023-01-28T05:45:54.781Z,93.58
2023-01-28T05:46:56.469Z,93.46
2023-01-28T05:48:00.023Z,93.39
2023-01-28T05:49:01.884Z,92.57
2023-01-28T05:50:04.872Z,91.84
2023-01-28T05:51:08.360Z,91.64
2023-01-28T05:52:11.846Z,91.32
2023-01-28T05:53:13.721Z,90.64
2023-01-28T05:54:18.333Z,90.36
2023-01-28T05:55:20.943Z,90.91
2023-01-28T05:56:23.948Z,91.61
2023-01-28T05:57:25.784Z,93.59
2023-01-28T05:58:31.045Z,93.78
2023-01-28T05:59:32.714Z,93.53
2023-01-28T06:00:35.351Z,93.47
2023-01-28T06:01:37.171Z,93.95
2023-01-28T06:02:39.959Z,94.50
2023-01-28T06:03:41.839Z,95.77
2023-01-28T06:04:44.581Z,96.10
2023-01-28T06:05:46.319Z,96.48
2023-01-28T06:06:50.341Z,96.44
2023-01-28T06:07:51.908Z,96.13
2023-01-28T06:08:55.049Z,95.88
2023-01-28T06:09:57.021Z,96.27
2023-01-28T06:10:59.880Z,96.48
2023-01-28T06:12:01.580Z,96.33
2023-01-28T06:13:04.300Z,95.47
2023-01-28T06:14:05.926Z,94.67
2023-01-28T06:15:09.991Z,93.69
2023-01-28T06:16:11.580Z,93.70
2023-01-28T06:17:14.127Z,93.74
2023-01-28T06:18:16.664Z,95.60
2023-01-28T06:19:19.171Z,95.96
2023-01-28T06:20:20.870Z,95.91
2023-01-28T06:21:23.546Z,94.71
2023-01-28T06:22:27.072Z,93.70
2023-01-28T06:23:29.860Z,92.97
2023-01-28T06:24:31.678Z,92.70
2023-01-28T06:25:34.313Z,92.14
2023-01-28T06:26:35.989Z,91.22
2023-01-28T06:27:38.751Z,92.96
2023-01-28T06:28:40.536Z,93.83
2023-01-28T06:29:43.017Z,95.13
2023-01-28T06:30:44.593Z,95.23
2023-01-28T06:31:47.609Z,94.58
2023-01-28T06:32:54.398Z,93.52
2023-01-28T06:33:56.994Z,93.25
2023-01-28T06:34:58.506Z,92.35
2023-01-28T06:36:03.420Z,91.93
2023-01-28T06:37:05.104Z,91.60
2023-01-28T06:38:09.258Z,92.20
2023-01-28T06:39:12.206Z,93.34
2023-01-28T06:40:14.188Z,93.22
2023-01-28T06:41:16.743Z,93.97
2023-01-28T06:42:18.371Z,95.16
2023-01-28T06:43:20.817Z,95.32
2023-01-28T06:44:23.480Z,94.88
2023-01-28T06:45:26.249Z,94.44
2023-01-28T06:46:28.218Z,94.45
2023-01-28T06:47:30.852Z,94.19
2023-01-28T06:48:32.926Z,93.67
2023-01-28T06:49:35.417Z,93.26
2023-01-28T06:50:37.101Z,92.94
2023-01-28T06:51:39.593Z,94.87
2023-01-28T06:52:41.654Z,95.13
2023-01-28T06:53:46.191Z,94.63
2023-01-28T06:54:48.380Z,93.57
2023-01-28T06:55:50.905Z,92.88
2023-01-28T06:56:52.428Z,92.30
2023-01-28T06:57:54.882Z,92.00
2023-01-28T06:58:56.448Z,91.71
2023-01-28T06:59:58.878Z,90.83
2023-01-28T07:01:00.732Z,90.27
2023-01-28T07:02:03.428Z,89.45
2023-01-28T07:03:05.515Z,88.95
2023-01-28T07:04:08.874Z,88.48
2023-01-28T07:05:11.142Z,88.20
2023-01-28T07:06:13.597Z,88.34
2023-01-28T07:07:15.057Z,89.36
2023-01-28T07:08:17.679Z,89.04
2023-01-28T07:09:20.605Z,89.42
2023-01-28T07:10:23.902Z,89.68
2023-01-28T07:11:26.443Z,89.66
2023-01-28T07:12:28.269Z,90.71
2023-01-28T07:13:30.914Z,92.20
2023-01-28T07:14:32.630Z,92.24
2023-01-28T07:15:35.062Z,91.38
2023-01-28T07:16:36.612Z,92.27
2023-01-28T07:17:40.362Z,92.53
2023-01-28T07:18:41.861Z,93.22
2023-01-28T07:19:44.361Z,92.74
2023-01-28T07:20:45.922Z,93.00
2023-01-28T07:21:48.439Z,92.12
2023-01-28T07:22:49.984Z,91.34
2023-01-28T07:23:52.715Z,90.58
2023-01-28T07:24:55.862Z,91.15
2023-01-28T07:26:02.965Z,91.69
2023-01-28T07:27:04.688Z,92.90
2023-01-28T07:28:07.703Z,93.39
2023-01-28T07:29:09.261Z,95.46
2023-01-28T07:30:13.305Z,95.59
2023-01-28T07:31:14.985Z,94.35
2023-01-28T07:32:17.454Z,93.02
2023-01-28T07:33:19.068Z,91.65
2023-01-28T07:34:21.552Z,91.33
2023-01-28T07:35:23.349Z,90.69
2023-01-28T07:36:26.080Z,90.88
2023-01-28T07:37:27.556Z,92.22
2023-01-28T07:38:30.129Z,93.45
2023-01-28T07:39:31.759Z,93.31
2023-01-28T07:40:35.904Z,92.99
2023-01-28T07:41:37.417Z,92.52
2023-01-28T07:42:41.119Z,91.48
2023-01-28T07:43:43.745Z,91.11
2023-01-28T07:44:45.326Z,91.01
2023-01-28T07:45:48.690Z,91.57
2023-01-28T07:46:50.238Z,93.36
2023-01-28T07:47:57.620Z,93.17
2023-01-28T07:48:59.120Z,92.22
2023-01-28T07:50:01.536Z,91.99
2023-01-28T07:51:04.516Z,91.77
2023-01-28T07:52:06.536Z,91.49
2023-01-28T07:53:10.736Z,90.59
2023-01-28T07:54:12.420Z,90.03
2023-01-28T07:55:15.484Z,90.24
2023-01-28T07:56:19.293Z,91.57
2023-01-28T07:57:23.224Z,91.73
2023-01-28T07:58:25.887Z,91.44
2023-01-28T07:59:28.454Z,90.75
2023-01-28T08:00:33.579Z,90.53
2023-01-28T08:01:35.151Z,90.26
2023-01-28T08:02:37.671Z,90.07
2023-01-28T08:03:39.270Z,89.88
2023-01-28T08:04:41.766Z,89.54
2023-01-28T08:05:47.604Z,89.23
2023-01-28T08:06:49.098Z,88.38
2023-01-28T08:07:51.579Z,87.66
2023-01-28T08:08:53.483Z,87.61
2023-01-28T08:09:55.864Z,87.17
2023-01-28T08:10:58.357Z,87.44
2023-01-28T08:12:03.357Z,87.26
2023-01-28T08:13:06.913Z,89.99
2023-01-28T08:14:08.468Z,90.03
2023-01-28T08:15:11.489Z,90.55
2023-01-28T08:16:13.218Z,92.33
2023-01-28T08:17:15.634Z,91.74
2023-01-28T08:18:17.548Z,91.04
2023-01-28T08:19:21.746Z,90.59
2023-01-28T08:20:23.741Z,90.25
2023-01-28T08:21:26.402Z,90.18
2023-01-28T08:22:28.353Z,88.88
2023-01-28T08:23:30.964Z,89.67
2023-01-28T08:24:32.516Z,90.58
2023-01-28T08:25:35.846Z,89.75
2023-01-28T08:26:38.526Z,88.72
2023-01-28T08:27:41.467Z,88.13
2023-01-28T08:28:43.926Z,87.50
2023-01-28T08:29:45.395Z,87.49
2023-01-28T08:30:48.283Z,86.34
2023-01-28T08:31:50.161Z,87.43
2023-01-28T08:32:52.673Z,88.63
2023-01-28T08:33:54.274Z,89.47
2023-01-28T08:34:56.839Z,89.85
2023-01-28T08:35:58.376Z,89.29
2023-01-28T08:37:00.828Z,89.02
2023-01-28T08:38:04.365Z,88.10
2023-01-28T08:39:06.820Z,87.25
2023-01-28T08:40:10.041Z,86.75
2023-01-28T08:41:12.463Z,86.86
2023-01-28T08:42:14.027Z,86.92
2023-01-28T08:43:18.133Z,86.52
2023-01-28T08:44:19.743Z,85.78
2023-01-28T08:45:27.518Z,86.25
2023-01-28T08:46:30.568Z,86.44
2023-01-28T08:47:33.078Z,87.51
2023-01-28T08:48:34.701Z,89.17
2023-01-28T08:49:37.259Z,90.17
2023-01-28T08:50:39.838Z,90.71
2023-01-28T08:51:42.362Z,90.54
2023-01-28T08:52:44.591Z,90.43
2023-01-28T08:53:47.260Z,89.12
2023-01-28T08:54:50.655Z,88.23
2023-01-28T08:55:55.064Z,87.50
2023-01-28T08:56:56.588Z,86.33
2023-01-28T08:58:02.775Z,87.67
2023-01-28T08:59:06.599Z,88.97
2023-01-28T09:00:10.893Z,89.28
2023-01-28T09:01:13.346Z,89.91
2023-01-28T09:02:30.340Z,90.57
2023-01-28T09:03:33.894Z,89.68
2023-01-28T09:04:35.386Z,88.51
2023-01-28T09:05:38.557Z,88.29
2023-01-28T09:06:41.165Z,88.73
2023-01-28T09:07:42.686Z,88.01
2023-01-28T09:08:45.264Z,87.71
2023-01-28T09:09:47.187Z,87.96
2023-01-28T09:10:49.679Z,86.79
2023-01-28T09:11:51.387Z,87.19
2023-01-28T09:12:53.861Z,87.49
2023-01-28T09:13:58.905Z,86.86
2023-01-28T09:15:01.879Z,86.30
2023-01-28T09:16:06.207Z,85.95
2023-01-28T09:17:07.668Z,85.81
2023-01-28T09:18:12.924Z,86.10
2023-01-28T09:19:15.797Z,86.67
2023-01-28T09:20:18.621Z,85.02
2023-01-28T09:21:20.251Z,85.04
2023-01-28T09:22:22.770Z,84.27
2023-01-28T09:23:24.482Z,82.08
2023-01-28T09:24:27.348Z,82.09
2023-01-28T09:25:29.044Z,81.01
2023-01-28T09:26:34.495Z,80.09
2023-01-28T09:27:36.091Z,80.64
2023-01-28T09:28:40.143Z,81.22
2023-01-28T09:29:41.738Z,80.34
2023-01-28T09:30:45.579Z,79.92
2023-01-28T09:31:47.302Z,78.78
2023-01-28T09:32:51.738Z,78.11
2023-01-28T09:33:57.133Z,77.51
2023-01-28T09:34:58.806Z,77.17
2023-01-28T09:36:02.256Z,77.65
2023-01-28T09:37:03.847Z,77.51
2023-01-28T09:38:06.657Z,77.38
2023-01-28T09:39:08.459Z,77.87
2023-01-28T09:40:16.478Z,77.71
2023-01-28T09:41:25.931Z,76.94
2023-01-28T09:42:44.604Z,77.06
2023-01-28T09:44:01.819Z,79.12
2023-01-28T09:45:13.324Z,79.01
2023-01-28T09:46:18.512Z,77.26
2023-01-28T09:47:27.194Z,77.17
2023-01-28T09:48:37.950Z,78.10
2023-01-28T09:49:44.249Z,79.30
2023-01-28T09:50:49.700Z,80.07
2023-01-28T09:51:54.663Z,81.45
2023-01-28T09:53:03.126Z,81.66
2023-01-28T09:54:13.641Z,80.52
2023-01-28T09:55:23.754Z,78.58
2023-01-28T09:56:28.953Z,77.42
2023-01-28T09:57:39.511Z,77.95
2023-01-28T09:58:42.359Z,79.38
2023-01-28T09:59:44.851Z,79.77
2023-01-28T10:00:55.051Z,80.34
2023-01-28T10:02:04.080Z,79.88
2023-01-28T10:03:42.272Z,78.72
2023-01-28T10:04:53.623Z,77.66
2023-01-28T10:06:06.447Z,78.48
2023-01-28T10:07:21.318Z,78.70
2023-01-28T10:08:38.072Z,78.16
2023-01-28T10:09:48.340Z,78.95
2023-01-28T10:10:57.782Z,80.22
2023-01-28T10:12:10.843Z,79.69
2023-01-28T10:13:38.003Z,78.48
2023-01-28T10:14:51.556Z,77.33
2023-01-28T10:16:17.932Z,75.04
2023-01-28T10:17:27.072Z,74.78
2023-01-28T10:18:38.202Z,75.44
2023-01-28T10:19:43.808Z,75.61
2023-01-28T10:20:49.920Z,75.07
2023-01-28T10:21:57.124Z,74.83
2023-01-28T10:23:05.825Z,75.04
2023-01-28T10:24:16.941Z,74.10
2023-01-28T10:25:20.934Z,74.55
2023-01-28T10:26:26.513Z,74.75
2023-01-28T10:27:30.744Z,75.33
2023-01-28T10:28:35.830Z,75.97
2023-01-28T10:29:39.901Z,75.34
2023-01-28T10:30:46.501Z,74.32
2023-01-28T10:31:54.628Z,74.37
2023-01-28T10:33:03.392Z,74.28
2023-01-28T10:34:05.870Z,74.22
2023-01-28T10:35:09.178Z,73.56
2023-01-28T10:36:10.703Z,72.47
2023-01-28T10:37:15.065Z,72.47
2023-01-28T10:38:20.557Z,74.76
2023-01-28T10:39:26.311Z,75.81
2023-01-28T10:40:28.110Z,77.03
2023-01-28T10:41:30.697Z,75.96
2023-01-28T10:42:33.950Z,74.10
2023-01-28T10:43:39.880Z,74.47
2023-01-28T10:44:45.068Z,73.68
2023-01-28T10:45:56.532Z,74.14
2023-01-28T10:47:03.417Z,74.50
2023-01-28T10:48:13.788Z,74.16
2023-01-28T10:49:19.736Z,74.33
2023-01-28T10:50:23.733Z,74.92
2023-01-28T10:51:34.786Z,74.27
2023-01-28T10:52:37.562Z,73.70
2023-01-28T10:53:41.218Z,74.36
2023-01-28T10:54:43.771Z,73.48
2023-01-28T10:55:50.747Z,73.34
2023-01-28T10:56:56.699Z,72.31
2023-01-28T10:57:59.222Z,73.59
2023-01-28T10:59:03.508Z,75.74
2023-01-28T11:00:22.900Z,74.97
2023-01-28T11:01:25.838Z,74.59
2023-01-28T11:02:32.998Z,74.19
2023-01-28T11:03:36.235Z,75.41
2023-01-28T11:04:38.882Z,74.85
2023-01-28T11:05:51.186Z,73.55
2023-01-28T11:06:59.615Z,72.49
2023-01-28T11:08:15.281Z,72.55
2023-01-28T11:09:25.196Z,72.88
2023-01-28T11:10:33.003Z,71.98
2023-01-28T11:11:34.573Z,71.80
2023-01-28T11:12:37.073Z,73.11
2023-01-28T11:13:50.471Z,73.79
2023-01-28T11:14:54.825Z,74.34
2023-01-28T11:16:02.160Z,74.20
2023-01-28T11:17:04.849Z,74.72
2023-01-28T11:18:18.040Z,74.73
2023-01-28T11:19:26.595Z,75.98
2023-01-28T11:20:32.530Z,77.50
2023-01-28T11:21:35.465Z,77.97
2023-01-28T11:22:41.014Z,77.59
2023-01-28T11:23:50.627Z,78.15
2023-01-28T11:24:53.492Z,77.50
2023-01-28T11:26:06.928Z,76.92
2023-01-28T11:27:17.293Z,77.16
2023-01-28T11:28:23.452Z,76.13
2023-01-28T11:29:30.631Z,75.07
2023-01-28T11:30:36.554Z,76.05
2023-01-28T11:31:44.019Z,74.39
2023-01-28T11:32:46.986Z,74.15
2023-01-28T11:33:50.929Z,74.52
2023-01-28T11:34:58.374Z,74.13
2023-01-28T11:36:07.063Z,72.92
2023-01-28T11:37:16.394Z,73.64
2023-01-28T11:38:20.348Z,74.53
2023-01-28T11:39:26.076Z,74.63
2023-01-28T11:40:28.477Z,73.67
2023-01-28T11:41:32.968Z,74.89
2023-01-28T11:42:34.429Z,75.95
2023-01-28T11:43:36.871Z,74.78
2023-01-28T11:44:39.192Z,73.64
2023-01-28T11:45:49.392Z,74.33
2023-01-28T11:47:05.975Z,73.63
2023-01-28T11:48:22.519Z,73.30
2023-01-28T11:49:36.790Z,72.48
2023-01-28T11:50:47.216Z,72.79
2023-01-28T11:51:57.122Z,72.81
2023-01-28T11:53:16.772Z,72.66
2023-01-28T11:54:33.694Z,73.04
2023-01-28T11:55:45.209Z,72.93
2023-01-28T11:57:03.007Z,73.42
2023-01-28T11:58:18.854Z,72.89
2023-01-28T11:59:42.937Z,71.27
2023-01-28T12:00:53.434Z,72.51
2023-01-28T12:02:00.012Z,72.21
2023-01-28T12:03:25.049Z,71.98
2023-01-28T12:04:50.219Z,72.58
2023-01-28T12:05:55.291Z,74.76
2023-01-28T12:07:11.623Z,74.87
2023-01-28T12:08:23.351Z,74.77
2023-01-28T12:09:33.216Z,74.33
2023-01-28T12:10:40.896Z,75.58
2023-01-28T12:12:14.197Z,76.09
2023-01-28T12:13:31.015Z,75.84
2023-01-28T12:14:47.987Z,74.61
2023-01-28T12:16:28.464Z,73.67
2023-01-28T12:17:45.011Z,73.30
2023-01-28T12:19:09.576Z,72.62
2023-01-28T12:20:23.363Z,73.09
2023-01-28T12:21:38.702Z,72.97
2023-01-28T12:22:56.561Z,72.60
2023-01-28T12:24:12.920Z,74.28
2023-01-28T12:25:37.673Z,75.43
2023-01-28T12:26:49.242Z,74.42
2023-01-28T12:27:56.954Z,74.96
2023-01-28T12:29:18.895Z,74.60
2023-01-28T12:30:29.942Z,73.92
2023-01-28T12:31:56.573Z,73.64
2023-01-28T12:33:17.517Z,74.12
2023-01-28T12:34:38.370Z,75.03
2023-01-28T12:35:58.484Z,74.53
2023-01-28T12:37:07.752Z,75.52
2023-01-28T12:38:16.150Z,74.87
2023-01-28T12:39:33.935Z,74.52
2023-01-28T12:40:50.235Z,74.05
2023-01-28T12:41:59.492Z,73.03
2023-01-28T12:43:05.983Z,72.94
2023-01-28T12:44:13.016Z,72.89
2023-01-28T12:45:18.715Z,72.45
2023-01-28T12:46:40.109Z,72.81
2023-01-28T12:47:47.711Z,72.82
2023-01-28T12:48:55.185Z,72.84
2023-01-28T12:50:04.458Z,72.91
2023-01-28T12:51:14.228Z,72.47
2023-01-28T12:52:24.208Z,72.92
2023-01-28T12:53:31.665Z,71.51
2023-01-28T12:54:40.356Z,72.01
2023-01-28T12:55:46.424Z,72.14
2023-01-28T12:56:53.901Z,71.66
2023-01-28T12:57:58.611Z,71.86
2023-01-28T12:59:05.777Z,72.49
2023-01-28T13:00:23.123Z,73.03
2023-01-28T13:01:29.601Z,72.70
2023-01-28T13:02:38.286Z,73.07
2023-01-28T13:03:44.639Z,72.39
2023-01-28T13:04:55.535Z,71.99
2023-01-28T13:06:03.416Z,71.14
2023-01-28T13:07:10.205Z,71.55
2023-01-28T13:08:18.688Z,72.68
2023-01-28T13:09:24.507Z,71.36
2023-01-28T13:10:31.038Z,71.10
2023-01-28T13:11:36.269Z,71.58
2023-01-28T13:12:41.483Z,71.42
2023-01-28T13:13:46.159Z,71.68
2023-01-28T13:14:49.351Z,71.99
2023-01-28T13:15:52.249Z,72.24
2023-01-28T13:16:56.435Z,71.80
2023-01-28T13:17:59.973Z,72.05
2023-01-28T13:19:08.516Z,72.08
2023-01-28T13:20:17.007Z,72.36
2023-01-28T13:21:40.169Z,70.81
2023-01-28T13:23:02.293Z,71.20
2023-01-28T13:24:20.712Z,72.10
2023-01-28T13:25:28.678Z,71.72
2023-01-28T13:26:41.685Z,72.81
2023-01-28T13:27:56.001Z,72.60
2023-01-28T13:29:09.751Z,72.69
2023-01-28T13:30:26.130Z,72.44
2023-01-28T13:31:40.035Z,72.27
2023-01-28T13:32:42.746Z,72.43
2023-01-28T13:33:48.725Z,71.88
2023-01-28T13:34:59.761Z,71.34
2023-01-28T13:36:11.358Z,71.80
2023-01-28T13:37:25.648Z,71.94
2023-01-28T13:38:28.485Z,73.36
2023-01-28T13:39:34.256Z,73.50
2023-01-28T13:40:37.509Z,73.92
2023-01-28T13:41:41.043Z,73.31
2023-01-28T13:42:43.539Z,72.47
2023-01-28T13:43:46.071Z,71.63
2023-01-28T13:44:47.713Z,71.35
2023-01-28T13:45:57.162Z,70.98
2023-01-28T13:47:14.854Z,71.09
2023-01-28T13:48:28.360Z,70.83
2023-01-28T13:49:34.335Z,71.69
2023-01-28T13:50:41.003Z,71.56
2023-01-28T13:51:57.531Z,70.97
2023-01-28T13:53:05.002Z,71.82
2023-01-28T13:54:13.047Z,70.83
2023-01-28T13:55:33.708Z,69.86
2023-01-28T13:57:03.791Z,69.61
2023-01-28T13:58:32.351Z,69.87
2023-01-28T13:59:49.729Z,69.00
2023-01-28T14:01:24.395Z,68.97
2023-01-28T14:03:04.062Z,68.45
2023-01-28T14:04:34.046Z,68.49
2023-01-28T14:05:59.552Z,68.51
2023-01-28T14:07:16.770Z,68.82
2023-01-28T14:08:37.614Z,70.13
2023-01-28T14:10:07.639Z,69.83
2023-01-28T14:11:29.911Z,70.07